Time;durP1;ratioP1;P1;durP2;ratioP2;P2;SDS_P1;SDS_P2;PMS_P1;PMS_P2;Temp;Humidity;BMP_temperature;BMP_pressure;BME280_temperature;BME280_humidity;BME280_pressure;Samples;Min_cycle;Max_cycle;Signal;HPM_P1;HPM_P2
2021/09/15 00:02:05;;;;;;;22.70;12.40;;;19.60;99.90;;;;;;4993061;28;20489;-59
2021/09/15 00:04:30;;;;;;;21.10;14.05;;;19.50;99.90;;;;;;5009175;28;20501;-63
2021/09/15 00:06:56;;;;;;;17.48;13.30;;;19.50;99.90;;;;;;5007295;28;20476;-62
2021/09/15 00:09:21;;;;;;;17.88;13.30;;;19.50;99.90;;;;;;5004116;28;20134;-62
2021/09/15 00:11:47;;;;;;;17.85;13.45;;;19.60;99.90;;;;;;5000823;28;20144;-63
2021/09/15 00:14:12;;;;;;;19.77;12.63;;;19.50;99.90;;;;;;4992337;28;20513;-59
2021/09/15 00:16:38;;;;;;;15.48;11.95;;;19.60;99.90;;;;;;5014295;28;20088;-62
2021/09/15 00:19:03;;;;;;;16.40;12.70;;;19.60;99.90;;;;;;5011036;28;20379;-62
2021/09/15 00:21:29;;;;;;;16.42;12.40;;;19.60;99.90;;;;;;5008670;28;20026;-60
2021/09/15 00:23:55;;;;;;;18.40;12.43;;;19.60;99.90;;;;;;5010995;28;20691;-61
2021/09/15 00:26:20;;;;;;;14.00;11.00;;;19.60;99.90;;;;;;5010840;28;20040;-61
2021/09/15 00:28:46;;;;;;;19.98;12.85;;;19.70;99.90;;;;;;5015075;28;20034;-62
2021/09/15 00:31:11;;;;;;;16.85;11.98;;;19.60;99.90;;;;;;5004565;28;20512;-63
2021/09/15 00:33:37;;;;;;;19.85;11.73;;;19.60;99.90;;;;;;5009460;28;20070;-61
2021/09/15 00:36:03;;;;;;;17.60;12.90;;;19.60;99.90;;;;;;4996239;28;20031;-61
2021/09/15 00:38:28;;;;;;;18.02;13.10;;;19.60;99.90;;;;;;5011957;28;20092;-60
2021/09/15 00:40:56;;;;;;;19.48;12.93;;;19.60;99.90;;;;;;5008959;28;20033;-60
2021/09/15 00:43:22;;;;;;;19.92;12.85;;;19.50;99.90;;;;;;5006815;28;20034;-61
2021/09/15 00:45:48;;;;;;;17.88;13.07;;;19.50;99.90;;;;;;5009568;28;20154;-61
2021/09/15 00:48:13;;;;;;;19.08;12.52;;;19.50;99.90;;;;;;5012754;28;20066;-59
2021/09/15 00:50:40;;;;;;;20.67;13.75;;;19.50;99.90;;;;;;5006859;28;20037;-62
2021/09/15 00:53:06;;;;;;;22.80;15.75;;;19.50;99.90;;;;;;5005782;28;20033;-61
2021/09/15 00:55:31;;;;;;;21.23;15.23;;;19.40;99.90;;;;;;5008926;28;20031;-60
2021/09/15 00:57:57;;;;;;;17.98;14.02;;;19.40;99.90;;;;;;5005899;28;20033;-62
2021/09/15 01:00:23;;;;;;;22.38;14.18;;;19.40;99.90;;;;;;5009182;28;20537;-62
2021/09/15 01:02:49;;;;;;;19.95;15.40;;;19.30;99.90;;;;;;5003630;28;20397;-61
2021/09/15 01:05:14;;;;;;;19.67;13.95;;;19.30;99.90;;;;;;5006768;28;20036;-61
2021/09/15 01:07:41;;;;;;;21.00;15.00;;;19.30;99.90;;;;;;5020618;28;20022;-63
2021/09/15 01:10:08;;;;;;;19.33;15.55;;;19.30;99.90;;;;;;5009911;28;20030;-62
2021/09/15 01:12:34;;;;;;;25.75;15.73;;;19.30;99.90;;;;;;5010247;28;20496;-62
2021/09/15 01:14:59;;;;;;;22.30;15.40;;;19.30;99.90;;;;;;5002102;28;20040;-63
2021/09/15 01:17:25;;;;;;;27.83;15.70;;;19.20;99.90;;;;;;5014652;28;20061;-62
2021/09/15 01:19:52;;;;;;;22.00;15.63;;;19.20;99.90;;;;;;5010645;28;20109;-62
2021/09/15 01:22:17;;;;;;;23.05;15.98;;;19.20;99.90;;;;;;5006690;28;20025;-62
2021/09/15 01:24:43;;;;;;;22.70;14.82;;;19.20;99.90;;;;;;5009887;28;20030;-61
2021/09/15 01:27:09;;;;;;;21.27;14.10;;;19.20;99.90;;;;;;5014713;28;20049;-62
2021/09/15 01:32:07;;;;;;;18.48;14.80;;;19.10;99.90;;;;;;5040307;23;20049;-62
2021/09/15 01:34:34;;;;;;;20.88;15.68;;;19.20;99.90;;;;;;5021578;28;20100;-62
2021/09/15 01:37:00;;;;;;;24.25;16.02;;;19.10;99.90;;;;;;5015916;28;20532;-62
2021/09/15 01:39:25;;;;;;;21.98;15.57;;;19.10;99.90;;;;;;5022045;28;20030;-62
2021/09/15 01:41:51;;;;;;;25.00;15.75;;;19.10;99.90;;;;;;5026851;28;20492;-62
2021/09/15 01:44:17;;;;;;;20.70;15.73;;;19.10;99.90;;;;;;5028191;28;20057;-62
2021/09/15 01:46:42;;;;;;;23.08;15.38;;;19.10;99.90;;;;;;5032029;28;20033;-62
2021/09/15 01:49:08;;;;;;;20.75;16.08;;;19.10;99.90;;;;;;5014209;28;20064;-62
2021/09/15 01:51:33;;;;;;;21.60;16.27;;;19.00;99.90;;;;;;5026873;28;20074;-62
2021/09/15 01:53:59;;;;;;;24.27;17.02;;;19.00;99.90;;;;;;5030612;28;20025;-62
2021/09/15 01:56:24;;;;;;;28.40;17.67;;;19.00;99.90;;;;;;5022792;28;20040;-62
2021/09/15 01:58:50;;;;;;;23.85;16.08;;;18.90;99.90;;;;;;5021672;28;20029;-62
2021/09/15 02:01:16;;;;;;;25.02;15.65;;;18.90;99.90;;;;;;5029264;28;20053;-62
2021/09/15 02:03:41;;;;;;;18.73;14.63;;;18.80;99.90;;;;;;5028307;28;20109;-62
2021/09/15 02:06:07;;;;;;;21.17;15.35;;;18.80;99.90;;;;;;5024570;28;20024;-60
2021/09/15 02:08:32;;;;;;;25.92;16.80;;;18.80;99.90;;;;;;5028553;28;20038;-63
2021/09/15 02:10:58;;;;;;;24.52;16.48;;;18.80;99.90;;;;;;5028073;28;20037;-61
2021/09/15 02:13:23;;;;;;;25.67;16.73;;;18.80;99.90;;;;;;5025029;28;20051;-62
2021/09/15 02:15:49;;;;;;;25.63;17.48;;;18.80;99.90;;;;;;5022483;28;20034;-62
2021/09/15 02:18:14;;;;;;;22.08;18.30;;;18.80;99.90;;;;;;5018494;28;20033;-62
2021/09/15 02:20:40;;;;;;;29.60;18.50;;;18.80;99.90;;;;;;5028257;28;20117;-61
2021/09/15 02:23:06;;;;;;;25.83;16.17;;;18.80;99.90;;;;;;5026888;28;20121;-62
2021/09/15 02:25:31;;;;;;;25.00;16.67;;;18.80;99.90;;;;;;5026841;28;20493;-62
2021/09/15 02:27:57;;;;;;;20.08;15.13;;;18.80;99.90;;;;;;5030472;28;20029;-62
2021/09/15 02:30:22;;;;;;;22.48;15.90;;;18.90;99.90;;;;;;5018329;28;20029;-62
2021/09/15 02:32:48;;;;;;;21.58;16.30;;;18.90;99.90;;;;;;5024021;28;20033;-61
2021/09/15 02:35:14;;;;;;;19.15;15.90;;;18.90;99.90;;;;;;5033714;28;20038;-61
2021/09/15 02:37:39;;;;;;;21.20;16.20;;;18.90;99.90;;;;;;5023676;28;20033;-62
2021/09/15 02:40:06;;;;;;;21.40;15.32;;;18.90;99.90;;;;;;5023767;28;20345;-62
2021/09/15 02:42:32;;;;;;;19.30;15.20;;;18.90;99.90;;;;;;5023135;28;20029;-62
2021/09/15 02:44:57;;;;;;;23.65;17.27;;;18.90;99.90;;;;;;5024614;28;20036;-62
2021/09/15 02:47:23;;;;;;;25.35;17.05;;;18.90;99.90;;;;;;5028917;28;20083;-62
2021/09/15 02:49:48;;;;;;;26.40;17.77;;;18.90;99.90;;;;;;5016395;28;20043;-62
2021/09/15 02:52:14;;;;;;;26.00;17.95;;;18.90;99.90;;;;;;5026933;28;20087;-62
2021/09/15 02:54:39;;;;;;;31.55;17.20;;;18.90;99.90;;;;;;5027014;28;20085;-62
2021/09/15 02:57:05;;;;;;;24.85;17.75;;;18.90;99.90;;;;;;5032234;28;20533;-62
2021/09/15 02:59:30;;;;;;;28.95;18.05;;;18.80;99.90;;;;;;5027286;28;20033;-62
2021/09/15 03:01:56;;;;;;;29.27;18.35;;;18.80;99.90;;;;;;5027421;28;20584;-62
2021/09/15 03:04:21;;;;;;;24.58;19.13;;;18.80;99.90;;;;;;5027445;28;20088;-62
2021/09/15 03:06:47;;;;;;;25.42;16.10;;;18.90;99.90;;;;;;5022044;28;20378;-62
2021/09/15 03:09:13;;;;;;;21.73;18.60;;;18.80;99.90;;;;;;5021317;28;20420;-61
2021/09/15 03:11:38;;;;;;;25.35;16.95;;;18.90;99.90;;;;;;5022117;28;20400;-60
2021/09/15 03:14:04;;;;;;;24.83;17.05;;;18.80;99.90;;;;;;5022766;28;20041;-62
2021/09/15 03:16:30;;;;;;;27.92;17.05;;;18.80;99.90;;;;;;5022473;28;20030;-62
2021/09/15 03:18:55;;;;;;;22.27;17.17;;;18.80;99.90;;;;;;5019875;28;20053;-62
2021/09/15 03:21:21;;;;;;;26.70;17.67;;;18.90;99.90;;;;;;5023305;28;20028;-62
2021/09/15 03:23:47;;;;;;;26.13;18.38;;;18.90;99.90;;;;;;5019467;28;20029;-63
2021/09/15 03:26:13;;;;;;;29.52;20.35;;;18.90;99.90;;;;;;5021727;28;20037;-62
2021/09/15 03:28:38;;;;;;;27.27;19.70;;;18.80;99.90;;;;;;5023990;28;20057;-62
2021/09/15 03:31:04;;;;;;;30.98;18.48;;;18.90;99.90;;;;;;5026571;28;20120;-62
2021/09/15 03:33:29;;;;;;;36.50;24.08;;;18.90;99.90;;;;;;5027712;28;20033;-62
2021/09/15 03:35:55;;;;;;;37.22;22.60;;;18.80;99.90;;;;;;5018383;28;20481;-62
2021/09/15 03:38:20;;;;;;;37.85;23.42;;;18.90;99.90;;;;;;5029351;28;20445;-62
2021/09/15 03:40:46;;;;;;;39.10;23.83;;;18.90;99.90;;;;;;5030566;28;20033;-60
2021/09/15 03:43:11;;;;;;;41.33;25.15;;;18.90;99.90;;;;;;5029081;28;20056;-62
2021/09/15 03:45:37;;;;;;;36.15;24.60;;;18.80;99.90;;;;;;5029980;28;20112;-61
2021/09/15 03:48:02;;;;;;;33.95;24.85;;;18.80;99.90;;;;;;5033377;28;20718;-62
2021/09/15 03:50:28;;;;;;;44.20;25.20;;;18.80;99.90;;;;;;5030042;28;20074;-61
2021/09/15 03:52:53;;;;;;;43.60;27.15;;;18.80;99.90;;;;;;5031989;28;20022;-61
2021/09/15 03:55:19;;;;;;;48.47;27.58;;;18.90;99.90;;;;;;5030594;28;20036;-61
2021/09/15 03:57:45;;;;;;;40.55;26.70;;;18.80;99.90;;;;;;5027173;28;20033;-62
2021/09/15 04:00:11;;;;;;;37.25;26.80;;;18.80;99.90;;;;;;5029247;28;20025;-63
2021/09/15 04:02:37;;;;;;;35.75;25.65;;;18.80;99.90;;;;;;5029921;28;20144;-62
2021/09/15 04:05:02;;;;;;;43.38;25.92;;;18.90;99.90;;;;;;5028594;28;20109;-61
2021/09/15 04:07:28;;;;;;;41.80;26.02;;;18.90;99.90;;;;;;5028081;28;20044;-62
2021/09/15 04:09:54;;;;;;;41.08;27.08;;;18.90;99.90;;;;;;5029222;28;20029;-61
2021/09/15 04:12:19;;;;;;;43.08;28.33;;;18.90;99.90;;;;;;5029179;28;20030;-59
2021/09/15 04:14:45;;;;;;;47.75;30.48;;;18.90;99.90;;;;;;5013574;28;20051;-64
2021/09/15 04:17:10;;;;;;;39.17;26.67;;;18.80;99.90;;;;;;5029108;28;20040;-62
2021/09/15 04:19:36;;;;;;;44.75;27.38;;;18.80;99.90;;;;;;5031365;28;20029;-62
2021/09/15 04:22:02;;;;;;;41.70;28.50;;;18.90;99.90;;;;;;5030664;28;20111;-61
2021/09/15 04:31:12;;;;;;;52.58;29.45;;;18.90;99.90;;;;;;5028376;28;20021;-61
2021/09/15 04:32:59;;;;;;;44.50;28.95;;;18.80;99.90;;;;;;5030820;28;20760;-62
2021/09/15 04:35:26;;;;;;;56.20;32.17;;;18.80;99.90;;;;;;5032082;28;20037;-62
2021/09/15 04:37:52;;;;;;;51.40;32.67;;;18.80;99.90;;;;;;5029853;28;20427;-61
2021/09/15 04:40:18;;;;;;;52.38;32.88;;;18.80;99.90;;;;;;5029222;28;20041;-63
2021/09/15 04:42:43;;;;;;;50.03;32.55;;;18.70;99.90;;;;;;5028456;28;20033;-63
2021/09/15 04:45:09;;;;;;;51.95;33.58;;;18.70;99.90;;;;;;5029354;28;20080;-63
2021/09/15 04:47:35;;;;;;;56.63;34.80;;;18.70;99.90;;;;;;5028472;28;20455;-61
2021/09/15 04:50:01;;;;;;;55.38;36.80;;;18.70;99.90;;;;;;5028224;28;20042;-61
2021/09/15 04:52:26;;;;;;;46.75;31.05;;;18.70;99.90;;;;;;5030261;28;20025;-63
2021/09/15 04:54:52;;;;;;;45.50;31.08;;;18.70;99.90;;;;;;5028251;28;20117;-62
2021/09/15 04:57:17;;;;;;;46.22;31.92;;;18.70;99.90;;;;;;5026275;28;20029;-63
2021/09/15 04:59:43;;;;;;;48.33;30.52;;;18.70;99.90;;;;;;5027276;28;20056;-63
2021/09/15 05:02:09;;;;;;;50.08;32.95;;;18.70;99.90;;;;;;5029403;28;20061;-62
2021/09/15 05:04:35;;;;;;;59.30;34.80;;;18.70;99.90;;;;;;5030330;28;20545;-61
2021/09/15 05:07:00;;;;;;;43.88;28.63;;;18.70;99.90;;;;;;5027156;28;20033;-62
2021/09/15 05:09:26;;;;;;;49.97;31.08;;;18.70;99.90;;;;;;5030301;28;20029;-62
2021/09/15 05:11:51;;;;;;;50.20;33.85;;;18.70;99.90;;;;;;5024950;28;20025;-62
2021/09/15 05:14:17;;;;;;;49.40;33.58;;;18.70;99.90;;;;;;5029679;28;20405;-62
2021/09/15 05:16:42;;;;;;;56.78;33.28;;;18.70;99.90;;;;;;5028418;28;20017;-62
2021/09/15 05:19:08;;;;;;;45.45;29.65;;;18.70;99.90;;;;;;5029292;28;20470;-62
2021/09/15 05:21:34;;;;;;;45.22;30.88;;;18.70;99.90;;;;;;5035625;28;20159;-62
2021/09/15 05:23:59;;;;;;;45.13;30.42;;;18.70;99.90;;;;;;5033081;28;20063;-62
2021/09/15 05:26:25;;;;;;;47.03;30.15;;;18.80;99.90;;;;;;5042316;28;20025;-62
2021/09/15 05:28:50;;;;;;;45.25;30.13;;;18.80;99.90;;;;;;5038257;28;20037;-62
2021/09/15 05:31:16;;;;;;;47.53;30.90;;;18.70;99.90;;;;;;5040111;28;20060;-62
2021/09/15 05:33:41;;;;;;;36.65;26.33;;;18.70;99.90;;;;;;5035779;28;20531;-62
2021/09/15 05:36:07;;;;;;;48.97;30.67;;;18.80;99.90;;;;;;5033740;28;20485;-62
2021/09/15 05:38:34;;;;;;;44.47;30.88;;;18.80;99.90;;;;;;5034082;28;20138;-62
2021/09/15 05:40:59;;;;;;;44.78;30.50;;;18.80;99.90;;;;;;5037575;28;20115;-62
2021/09/15 05:43:25;;;;;;;49.63;32.63;;;18.80;99.90;;;;;;5036555;28;20496;-62
2021/09/15 05:45:50;;;;;;;49.55;33.03;;;18.80;99.90;;;;;;5036925;28;20036;-62
2021/09/15 05:48:16;;;;;;;53.97;32.35;;;18.80;99.90;;;;;;5034445;28;20021;-62
2021/09/15 05:50:41;;;;;;;46.85;31.58;;;18.80;99.90;;;;;;5038804;28;20028;-62
2021/09/15 05:53:07;;;;;;;44.90;31.13;;;18.80;99.90;;;;;;5038183;28;20025;-62
2021/09/15 05:55:32;;;;;;;44.15;29.77;;;18.80;99.90;;;;;;5035864;28;20424;-62
2021/09/15 05:57:58;;;;;;;42.80;29.30;;;18.80;99.90;;;;;;5035989;28;20041;-62
2021/09/15 06:00:23;;;;;;;47.83;31.52;;;18.90;99.90;;;;;;5032310;28;20033;-62
2021/09/15 06:02:49;;;;;;;46.70;31.02;;;18.90;99.90;;;;;;5035187;28;20028;-61
2021/09/15 06:05:14;;;;;;;52.20;31.85;;;18.80;99.90;;;;;;5037963;28;20036;-62
2021/09/15 06:07:41;;;;;;;48.70;31.58;;;18.90;99.90;;;;;;5036057;28;20051;-62
2021/09/15 06:10:07;;;;;;;48.08;30.90;;;18.90;99.90;;;;;;5034036;28;20025;-62
2021/09/15 06:12:32;;;;;;;42.80;29.83;;;18.90;99.90;;;;;;5032794;28;20087;-62
2021/09/15 06:14:58;;;;;;;40.83;28.48;;;18.90;99.90;;;;;;5034892;28;20037;-61
2021/09/15 06:17:23;;;;;;;50.53;32.45;;;19.00;99.90;;;;;;5033569;28;20017;-62
2021/09/15 06:19:49;;;;;;;44.00;29.42;;;18.90;99.90;;;;;;5035288;28;20025;-61
2021/09/15 06:22:14;;;;;;;46.40;29.83;;;19.00;99.90;;;;;;5033673;28;20060;-62
2021/09/15 06:24:40;;;;;;;45.17;32.00;;;19.00;99.90;;;;;;5032213;28;20057;-62
2021/09/15 06:27:05;;;;;;;55.15;29.55;;;19.00;99.90;;;;;;5034249;28;20049;-62
2021/09/15 06:29:31;;;;;;;37.55;26.83;;;19.10;99.90;;;;;;5028223;28;20037;-62
2021/09/15 06:31:57;;;;;;;45.67;30.00;;;19.10;99.90;;;;;;5008551;28;20423;-61
2021/09/15 06:34:23;;;;;;;45.33;28.83;;;19.10;99.90;;;;;;5030149;28;20033;-62
2021/09/15 06:36:48;;;;;;;37.45;25.80;;;19.20;99.90;;;;;;5029326;28;20033;-62
2021/09/15 06:39:14;;;;;;;31.95;23.50;;;19.20;99.90;;;;;;5025633;28;20812;-62
2021/09/15 06:41:39;;;;;;;37.10;22.13;;;19.20;99.90;;;;;;5028537;28;20509;-62
2021/09/15 06:44:05;;;;;;;34.10;23.45;;;19.30;99.90;;;;;;5023345;28;20029;-62
2021/09/15 06:46:30;;;;;;;32.95;22.77;;;19.30;99.90;;;;;;5028796;28;20083;-62
2021/09/15 06:48:56;;;;;;;28.50;21.85;;;19.40;99.90;;;;;;5020580;28;20038;-62
2021/09/15 06:51:22;;;;;;;28.17;20.50;;;19.40;99.90;;;;;;5025401;28;20021;-62
2021/09/15 06:53:47;;;;;;;32.17;21.63;;;19.40;99.90;;;;;;5028255;28;20485;-62
2021/09/15 06:56:13;;;;;;;28.25;20.27;;;19.50;99.90;;;;;;5029231;28;20076;-62
2021/09/15 06:58:39;;;;;;;27.75;19.00;;;19.50;99.90;;;;;;5030930;28;20029;-62
2021/09/15 07:01:04;;;;;;;25.85;20.10;;;19.60;99.90;;;;;;5024749;28;20102;-62
2021/09/15 07:03:30;;;;;;;29.67;19.38;;;19.60;99.90;;;;;;5030619;28;20057;-62
2021/09/15 07:05:56;;;;;;;27.42;18.42;;;19.60;99.90;;;;;;5030992;28;20528;-62
2021/09/15 07:08:21;;;;;;;31.10;18.85;;;19.70;99.90;;;;;;5030283;28;20029;-62
2021/09/15 07:10:47;;;;;;;23.40;16.90;;;19.70;99.90;;;;;;5029691;28;20049;-62
2021/09/15 07:13:13;;;;;;;27.70;17.67;;;19.70;99.90;;;;;;5030538;28;20508;-62
2021/09/15 07:15:39;;;;;;;25.15;17.25;;;19.80;99.90;;;;;;5012519;28;20045;-62
2021/09/15 07:18:06;;;;;;;26.40;16.73;;;19.80;99.90;;;;;;5031386;28;20030;-62
2021/09/15 07:20:33;;;;;;;23.05;16.13;;;19.80;99.90;;;;;;5029838;28;20079;-62
2021/09/15 07:22:58;;;;;;;20.73;15.35;;;19.90;99.90;;;;;;5030097;28;20018;-62
2021/09/15 07:25:24;;;;;;;22.15;15.60;;;19.90;99.90;;;;;;5029283;28;20036;-62
2021/09/15 07:27:49;;;;;;;23.08;15.55;;;19.90;99.90;;;;;;5031068;28;20034;-62
2021/09/15 07:32:48;;;;;;;28.92;14.95;;;20.00;99.90;;;;;;4974307;28;20042;-60
2021/09/15 07:35:14;;;;;;;23.52;14.95;;;20.10;99.90;;;;;;4970604;28;20042;-60
2021/09/15 07:37:40;;;;;;;24.67;14.95;;;20.10;99.90;;;;;;4971842;28;20403;-61
2021/09/15 07:40:07;;;;;;;19.00;14.88;;;20.10;99.90;;;;;;4972051;28;20081;-63
2021/09/15 07:42:33;;;;;;;20.58;14.80;;;20.20;99.90;;;;;;4995862;28;20529;-62
2021/09/15 07:44:58;;;;;;;23.75;15.43;;;20.20;99.90;;;;;;4991557;28;20035;-62
2021/09/15 07:47:24;;;;;;;23.33;15.15;;;20.30;99.90;;;;;;4991457;28;20088;-63
2021/09/15 07:49:50;;;;;;;19.77;14.30;;;20.30;99.90;;;;;;4992250;28;20042;-62
2021/09/15 07:52:16;;;;;;;19.60;15.07;;;20.40;99.90;;;;;;4996549;28;20034;-62
2021/09/15 07:54:41;;;;;;;25.10;14.35;;;20.40;99.90;;;;;;4990909;28;20530;-64
2021/09/15 07:57:07;;;;;;;19.67;13.43;;;20.40;99.90;;;;;;4990052;28;20142;-64
2021/09/15 07:59:33;;;;;;;20.52;11.88;;;20.40;99.90;;;;;;4992113;28;20449;-63
2021/09/15 08:01:59;;;;;;;16.40;10.23;;;20.40;99.90;;;;;;4994642;28;20117;-63
2021/09/15 08:04:24;;;;;;;18.83;9.27;;;20.40;99.90;;;;;;4990216;28;20808;-63
2021/09/15 08:06:50;;;;;;;13.15;9.45;;;20.40;99.90;;;;;;4988116;28;20038;-62
2021/09/15 08:09:16;;;;;;;18.35;10.00;;;20.50;99.90;;;;;;4990747;28;20038;-62
2021/09/15 08:11:41;;;;;;;15.35;9.18;;;20.50;99.90;;;;;;4994821;28;20069;-63
2021/09/15 08:14:07;;;;;;;16.17;7.95;;;20.60;99.90;;;;;;4990571;28;20034;-63
2021/09/15 08:16:32;;;;;;;15.38;8.70;;;20.60;99.90;;;;;;4990847;28;20034;-62
2021/09/15 08:19:01;;;;;;;22.15;8.20;;;20.70;99.90;;;;;;4990707;28;20088;-63
2021/09/15 08:21:27;;;;;;;14.80;9.20;;;20.80;99.90;;;;;;4988133;28;20077;-63
2021/09/15 08:23:53;;;;;;;11.68;8.30;;;20.80;99.90;;;;;;4994426;28;20035;-63
2021/09/15 08:26:19;;;;;;;11.10;8.25;;;20.90;99.90;;;;;;4990641;28;20131;-62
2021/09/15 08:28:46;;;;;;;14.98;8.57;;;20.90;99.90;;;;;;4988969;28;20034;-63
2021/09/15 08:31:11;;;;;;;14.13;8.70;;;20.90;99.90;;;;;;4993589;28;20041;-63
2021/09/15 08:33:37;;;;;;;12.93;8.38;;;20.90;99.90;;;;;;4993461;28;20030;-63
2021/09/15 08:36:03;;;;;;;12.45;8.32;;;20.80;99.90;;;;;;4991745;28;20117;-63
2021/09/15 08:38:29;;;;;;;16.10;9.85;;;20.90;99.90;;;;;;4992006;28;20102;-63
2021/09/15 08:40:55;;;;;;;10.68;7.68;;;20.90;99.90;;;;;;4998369;28;20121;-63
2021/09/15 08:43:21;;;;;;;14.77;7.93;;;20.90;99.90;;;;;;4999162;28;20031;-63
2021/09/15 08:45:47;;;;;;;17.45;7.80;;;20.90;99.90;;;;;;4997779;28;20034;-63
2021/09/15 08:48:18;;;;;;;8.52;6.70;;;21.00;99.90;;;;;;4997801;28;20545;-63
2021/09/15 08:50:46;;;;;;;20.60;7.18;;;21.00;99.90;;;;;;5004919;28;20042;-63
2021/09/15 08:53:12;;;;;;;9.05;5.60;;;21.10;99.90;;;;;;4998090;28;20088;-62
2021/09/15 08:55:37;;;;;;;14.98;6.38;;;21.20;99.90;;;;;;4998010;28;20034;-63
2021/09/15 08:58:03;;;;;;;14.38;6.18;;;21.20;99.90;;;;;;4997783;28;20617;-63
2021/09/15 09:00:29;;;;;;;11.05;5.57;;;21.30;99.90;;;;;;4998069;28;20030;-63
2021/09/15 09:02:56;;;;;;;10.82;5.95;;;21.30;99.90;;;;;;4997594;28;20065;-64
2021/09/15 09:05:22;;;;;;;12.45;5.53;;;21.30;99.90;;;;;;5003313;28;20039;-63
2021/09/15 09:07:47;;;;;;;10.32;5.15;;;21.50;99.90;;;;;;4998009;28;20041;-64
2021/09/15 09:10:15;;;;;;;9.25;4.75;;;21.50;99.90;;;;;;4997766;28;20034;-62
2021/09/15 09:12:44;;;;;;;10.43;5.32;;;21.60;99.90;;;;;;4999280;28;20466;-63
2021/09/15 09:15:26;;;;;;;10.88;5.50;;;21.70;99.90;;;;;;4992539;28;20097;-63
2021/09/15 09:17:53;;;;;;;8.07;4.13;;;21.70;99.90;;;;;;4993334;28;20029;-63
2021/09/15 09:20:38;;;;;;;6.85;4.82;;;21.70;99.90;;;;;;4998032;28;20453;-63
2021/09/15 09:23:14;;;;;;;7.63;4.22;;;21.80;99.90;;;;;;4997648;28;20084;-63
2021/09/15 09:25:56;;;;;;;7.45;4.85;;;21.80;99.90;;;;;;4998145;28;20034;-63
2021/09/15 09:28:32;;;;;;;8.18;3.90;;;21.80;99.90;;;;;;4997527;28;20030;-62
2021/09/15 09:31:09;;;;;;;9.63;4.18;;;21.80;99.90;;;;;;4994279;28;20487;-63
2021/09/15 09:33:35;;;;;;;7.22;4.00;;;21.80;99.90;;;;;;5002244;28;20386;-63
2021/09/15 09:36:06;;;;;;;6.95;3.75;;;21.80;99.90;;;;;;4997892;28;20033;-62
2021/09/15 09:38:35;;;;;;;8.73;3.75;;;21.70;99.90;;;;;;4998065;28;20418;-63
2021/09/15 09:41:11;;;;;;;8.85;3.83;;;21.70;99.90;;;;;;4997975;28;20026;-63
2021/09/15 09:43:47;;;;;;;9.77;3.95;;;21.80;99.90;;;;;;4996610;28;20022;-63
2021/09/15 09:46:18;;;;;;;9.65;3.72;;;21.90;99.90;;;;;;4997879;28;20027;-63
2021/09/15 09:48:51;;;;;;;13.55;4.38;;;21.80;99.90;;;;;;4998002;28;20506;-63
2021/09/15 09:51:39;;;;;;;8.77;3.95;;;21.70;99.90;;;;;;4999226;28;20162;-64
2021/09/15 09:54:21;;;;;;;8.60;3.72;;;21.70;99.90;;;;;;4993929;28;20027;-63
2021/09/15 09:56:49;;;;;;;7.38;4.20;;;21.60;99.90;;;;;;4994093;28;20046;-63
2021/09/15 09:59:16;;;;;;;10.38;3.72;;;21.50;99.90;;;;;;4995123;28;20105;-62
2021/09/15 10:01:55;;;;;;;9.20;3.97;;;21.50;99.90;;;;;;4997655;28;20041;-61
2021/09/15 10:04:21;;;;;;;6.55;3.35;;;21.40;99.90;;;;;;4990523;28;20025;-62
2021/09/15 10:06:47;;;;;;;6.20;3.97;;;21.30;99.90;;;;;;4990951;28;20109;-62
2021/09/15 10:09:14;;;;;;;7.88;4.05;;;21.30;99.90;;;;;;4986560;28;20042;-62
2021/09/15 10:11:41;;;;;;;8.68;4.20;;;21.30;99.90;;;;;;4994241;28;20029;-63
2021/09/15 10:14:13;;;;;;;5.43;3.38;;;21.30;99.90;;;;;;4993648;28;20513;-63
2021/09/15 10:16:54;;;;;;;14.00;4.15;;;21.20;99.90;;;;;;4994271;28;20406;-63
2021/09/15 10:19:26;;;;;;;6.50;4.05;;;21.20;99.90;;;;;;4994223;28;20022;-63
2021/09/15 10:21:58;;;;;;;11.05;3.88;;;21.10;99.90;;;;;;4989853;28;20031;-63
2021/09/15 10:24:56;;;;;;;7.95;4.20;;;21.10;99.90;;;;;;4991292;28;20109;-63
2021/09/15 10:27:25;;;;;;;11.25;5.03;;;20.90;99.90;;;;;;4990269;28;20035;-63
2021/09/15 10:30:20;;;;;;;11.38;4.53;;;20.90;99.90;;;;;;4992770;28;20034;-60
2021/09/15 10:32:48;;;;;;;10.95;5.15;;;20.90;99.90;;;;;;4977411;28;20038;-63
2021/09/15 10:35:34;;;;;;;7.50;4.25;;;20.80;99.90;;;;;;4994407;28;20037;-63
2021/09/15 10:38:00;;;;;;;8.20;4.50;;;20.80;99.90;;;;;;4988853;28;20043;-63
2021/09/15 10:40:30;;;;;;;9.10;4.72;;;20.80;99.90;;;;;;4989980;28;20034;-63
2021/09/15 10:42:56;;;;;;;8.02;4.32;;;20.80;99.90;;;;;;4989276;28;20037;-63
2021/09/15 10:45:29;;;;;;;9.27;4.07;;;20.80;99.90;;;;;;4992215;28;20034;-63
2021/09/15 10:48:16;;;;;;;6.43;4.93;;;20.80;99.90;;;;;;4993939;28;20440;-63
2021/09/15 10:50:42;;;;;;;6.35;4.13;;;20.80;99.90;;;;;;4998342;28;20502;-63
2021/09/15 10:53:07;;;;;;;6.88;3.85;;;20.80;99.90;;;;;;4995428;28;20034;-63
2021/09/15 10:55:44;;;;;;;9.77;3.75;;;20.80;99.90;;;;;;4993212;28;20038;-63
2021/09/15 10:58:11;;;;;;;9.10;4.03;;;20.80;99.90;;;;;;4993644;28;20449;-63
2021/09/15 11:00:54;;;;;;;6.07;3.28;;;20.80;99.90;;;;;;4994410;28;20030;-63
2021/09/15 11:03:23;;;;;;;10.55;3.63;;;20.80;99.90;;;;;;4995887;28;20073;-63
2021/09/15 11:05:49;;;;;;;6.55;3.88;;;20.80;99.90;;;;;;4993060;28;20076;-63
2021/09/15 11:08:32;;;;;;;7.28;4.13;;;20.90;99.90;;;;;;4992910;28;20073;-63
2021/09/15 11:10:57;;;;;;;5.05;3.30;;;20.90;99.90;;;;;;4995092;28;20038;-63
2021/09/15 11:13:30;;;;;;;4.57;2.72;;;21.00;99.90;;;;;;4992033;28;20038;-63
2021/09/15 11:15:56;;;;;;;7.38;3.47;;;21.00;99.90;;;;;;4992444;28;20034;-63
2021/09/15 11:18:25;;;;;;;5.85;3.17;;;21.00;99.90;;;;;;4993395;28;20027;-63
2021/09/15 11:20:55;;;;;;;7.63;3.00;;;21.00;99.90;;;;;;4994923;28;20027;-62
2021/09/15 11:23:25;;;;;;;6.22;2.60;;;20.90;99.90;;;;;;4995007;28;20021;-63
2021/09/15 11:25:51;;;;;;;6.10;2.70;;;20.90;99.90;;;;;;4987476;28;20080;-63
2021/09/15 11:28:19;;;;;;;4.28;2.80;;;20.90;99.90;;;;;;4993104;28;20042;-63
2021/09/15 11:30:50;;;;;;;8.15;3.83;;;20.90;99.90;;;;;;4990162;28;20034;-63
2021/09/15 11:33:24;;;;;;;5.57;3.85;;;20.90;99.90;;;;;;4992644;28;20081;-62
2021/09/15 11:35:57;;;;;;;10.20;4.90;;;21.10;99.90;;;;;;4992289;28;20048;-63
2021/09/15 11:38:31;;;;;;;8.60;4.90;;;21.10;99.90;;;;;;4992590;28;20039;-63
2021/09/15 11:41:23;;;;;;;13.35;5.05;;;21.20;99.90;;;;;;4991919;28;20041;-62
2021/09/15 11:43:49;;;;;;;10.73;5.90;;;21.30;99.90;;;;;;4989621;28;20034;-63
2021/09/15 11:46:17;;;;;;;11.35;6.03;;;21.30;99.90;;;;;;4992594;28;20022;-63
2021/09/15 11:48:43;;;;;;;15.00;6.18;;;21.40;99.90;;;;;;4992434;28;20022;-63
2021/09/15 11:51:14;;;;;;;15.85;6.50;;;21.40;99.90;;;;;;4992684;28;20054;-63
2021/09/15 11:53:40;;;;;;;15.35;7.45;;;21.40;99.90;;;;;;4991835;28;20072;-64
2021/09/15 11:56:06;;;;;;;11.27;7.63;;;21.40;99.90;;;;;;4992057;28;20038;-62
2021/09/15 11:58:31;;;;;;;16.45;7.75;;;21.40;99.90;;;;;;4991129;28;20278;-63
2021/09/15 12:00:57;;;;;;;12.65;7.15;;;21.30;99.90;;;;;;4993077;28;20068;-63
2021/09/15 12:03:27;;;;;;;12.23;7.35;;;21.40;99.90;;;;;;4992886;28;20533;-63
2021/09/15 12:05:54;;;;;;;10.90;7.40;;;21.40;99.90;;;;;;4992535;28;20045;-63
2021/09/15 12:08:20;;;;;;;9.73;7.68;;;21.40;99.90;;;;;;4992583;28;20514;-62
2021/09/15 12:10:47;;;;;;;11.05;6.78;;;21.30;99.90;;;;;;4990531;28;20030;-63
2021/09/15 12:13:13;;;;;;;9.50;6.80;;;21.20;99.90;;;;;;4996870;28;20344;-63
2021/09/15 12:15:49;;;;;;;10.32;6.20;;;21.00;99.90;;;;;;4992069;28;20102;-63
2021/09/15 12:18:21;;;;;;;11.50;7.57;;;20.90;99.90;;;;;;4991681;28;20100;-63
2021/09/15 12:20:48;;;;;;;11.95;8.15;;;20.90;99.90;;;;;;4997223;28;20030;-63
2021/09/15 12:23:16;;;;;;;10.68;7.57;;;21.00;99.90;;;;;;4992382;28;20080;-63
2021/09/15 12:25:59;;;;;;;13.55;7.30;;;21.10;99.90;;;;;;4988395;28;20029;-64
2021/09/15 12:28:28;;;;;;;15.27;8.10;;;21.30;99.90;;;;;;4991922;28;20034;-63
2021/09/15 12:30:55;;;;;;;11.40;7.65;;;21.30;99.90;;;;;;4997262;28;20034;-63
2021/09/15 12:33:33;;;;;;;11.85;8.07;;;21.40;99.90;;;;;;4995260;28;20038;-63
2021/09/15 12:36:19;;;;;;;11.52;8.50;;;21.40;99.90;;;;;;4984164;28;20026;-63
2021/09/15 12:39:01;;;;;;;14.23;8.90;;;21.40;99.90;;;;;;4985021;28;20089;-64
2021/09/15 12:41:31;;;;;;;12.20;9.43;;;21.30;99.90;;;;;;4996341;28;20026;-63
2021/09/15 12:44:09;;;;;;;13.50;9.00;;;21.30;99.90;;;;;;4993282;28;20081;-63
2021/09/15 12:46:34;;;;;;;15.48;8.55;;;21.30;99.90;;;;;;4991624;28;20026;-63